createdAt,value
2019-01-24T00:01:22.973Z,88.00
2019-01-24T00:04:03.388Z,88.47
2019-01-24T00:06:43.756Z,84.03
2019-01-24T00:09:26.839Z,85.70
2019-01-24T00:12:07.763Z,88.73
2019-01-24T00:14:48.640Z,86.70
2019-01-24T00:17:28.880Z,80.63
2019-01-24T00:20:09.314Z,79.60
2019-01-24T00:22:50.204Z,83.43
2019-01-24T00:25:33.961Z,73.10
2019-01-24T00:28:15.145Z,84.60
2019-01-24T00:30:55.407Z,81.33
2019-01-24T00:33:36.019Z,75.57
2019-01-24T00:36:17.231Z,78.43
2019-01-24T00:38:58.061Z,76.87
2019-01-24T00:41:39.161Z,74.37
2019-01-24T00:44:19.691Z,67.43
2019-01-24T00:47:00.396Z,66.00
2019-01-24T00:49:41.180Z,62.97
2019-01-24T00:52:21.909Z,64.77
2019-01-24T00:55:02.442Z,61.47
2019-01-24T00:57:46.465Z,57.67
2019-01-24T01:00:34.513Z,62.70
2019-01-24T01:03:22.284Z,58.23
2019-01-24T01:06:10.033Z,59.63
2019-01-24T01:08:57.903Z,58.90
2019-01-24T01:11:45.648Z,62.17
2019-01-24T01:14:33.428Z,70.10
2019-01-24T01:17:21.477Z,67.77
2019-01-24T01:20:29.996Z,62.07
2019-01-24T01:23:17.736Z,65.97
2019-01-24T01:26:06.064Z,62.47
2019-01-24T01:28:53.833Z,58.47
2019-01-24T01:31:41.637Z,60.97
2019-01-24T01:34:29.436Z,66.17
2019-01-24T01:37:17.285Z,57.67
2019-01-24T01:40:25.765Z,61.87
2019-01-24T01:48:47.876Z,59.37
2019-01-24T01:54:37.053Z,55.47
2019-01-24T01:57:18.316Z,58.40
2019-01-24T01:59:59.099Z,55.40
2019-01-24T02:02:39.853Z,55.83
2019-01-24T02:05:20.583Z,56.83
2019-01-24T02:08:00.933Z,52.97
2019-01-24T02:10:41.785Z,56.33
2019-01-24T02:13:22.736Z,51.17
2019-01-24T02:16:03.296Z,55.20
2019-01-24T02:18:44.042Z,56.53
2019-01-24T02:21:25.312Z,58.30
2019-01-24T02:24:05.981Z,56.67
2019-01-24T02:26:46.601Z,55.60
2019-01-24T02:29:27.639Z,58.27
2019-01-24T02:32:08.528Z,61.13
2019-01-24T02:34:49.815Z,53.93
2019-01-24T02:37:30.741Z,61.67
2019-01-24T02:40:11.644Z,65.63
2019-01-24T02:42:52.187Z,58.93
2019-01-24T02:45:32.732Z,57.73
2019-01-24T02:48:13.175Z,58.93
2019-01-24T02:50:53.682Z,57.27
2019-01-24T02:53:34.814Z,58.67
2019-01-24T02:56:15.989Z,56.53
2019-01-24T02:58:57.100Z,55.57
2019-01-24T03:01:37.879Z,55.87
2019-01-24T03:04:18.609Z,51.43
2019-01-24T03:06:59.048Z,52.60
2019-01-24T03:09:39.926Z,52.33
2019-01-24T03:12:20.727Z,48.77
2019-01-24T03:15:01.544Z,49.37
2019-01-24T03:17:42.108Z,48.57
2019-01-24T03:20:23.105Z,47.63
2019-01-24T03:23:03.477Z,52.73
2019-01-24T03:25:44.238Z,48.83
2019-01-24T03:28:25.377Z,51.17
2019-01-24T03:31:07.804Z,46.20
2019-01-24T03:36:33.569Z,53.83
2019-01-24T03:39:13.748Z,53.33
2019-01-24T03:41:54.348Z,49.67
2019-01-24T03:44:34.877Z,50.50
2019-01-24T03:47:17.980Z,53.87
2019-01-24T03:49:58.382Z,52.83
2019-01-24T03:52:38.883Z,53.77
2019-01-24T03:55:19.646Z,50.03
2019-01-24T03:58:01.696Z,53.80
2019-01-24T04:00:42.909Z,56.97
2019-01-24T04:03:23.994Z,51.73
2019-01-24T04:06:04.463Z,63.13
2019-01-24T04:08:45.811Z,47.57
2019-01-24T04:11:26.119Z,46.17
2019-01-24T04:14:06.593Z,46.47
2019-01-24T04:16:47.083Z,45.93
2019-01-24T04:19:28.018Z,46.43
2019-01-24T04:22:09.014Z,43.20
2019-01-24T04:24:49.959Z,51.17
2019-01-24T04:27:30.927Z,48.80
2019-01-24T04:30:14.332Z,49.97
2019-01-24T04:32:55.312Z,52.30
2019-01-24T04:35:36.134Z,46.40
2019-01-24T04:38:16.924Z,48.93
2019-01-24T04:40:59.513Z,47.37
2019-01-24T04:43:41.826Z,45.00
2019-01-24T04:46:22.929Z,49.43
2019-01-24T04:49:03.880Z,46.83
2019-01-24T04:51:44.884Z,51.00
2019-01-24T04:54:25.457Z,46.30
2019-01-24T04:57:08.425Z,46.37
2019-01-24T04:59:49.065Z,47.73
2019-01-24T05:02:29.522Z,52.53
2019-01-24T05:05:09.986Z,54.27
2019-01-24T05:07:38.424Z,49.40
2019-01-24T05:10:26.157Z,63.80
2019-01-24T05:13:14.205Z,48.47
2019-01-24T05:16:02.159Z,73.07
2019-01-24T05:19:10.893Z,54.37
2019-01-24T05:21:58.760Z,51.37
2019-01-24T05:24:46.968Z,53.83
2019-01-24T05:27:34.778Z,53.33
2019-01-24T05:30:43.294Z,52.07
2019-01-24T05:33:31.329Z,50.40
2019-01-24T05:36:19.106Z,50.23
2019-01-24T05:39:07.147Z,52.10
2019-01-24T05:41:54.926Z,57.07
2019-01-24T05:45:03.420Z,51.60
2019-01-24T05:47:51.164Z,54.80
2019-01-24T05:50:38.941Z,50.43
2019-01-24T05:53:26.714Z,47.87
2019-01-24T05:56:07.779Z,53.57
2019-01-24T05:58:48.705Z,53.97
2019-01-24T06:01:47.051Z,45.37
2019-01-24T06:04:24.949Z,51.00
2019-01-24T06:07:05.437Z,50.40
2019-01-24T06:09:46.265Z,48.57
2019-01-24T06:12:27.174Z,53.40
2019-01-24T06:15:07.906Z,50.30
2019-01-24T06:17:48.814Z,52.43
2019-01-24T06:20:29.626Z,52.17
2019-01-24T06:23:11.203Z,49.80
2019-01-24T06:25:52.137Z,52.63
2019-01-24T06:28:33.567Z,55.37
2019-01-24T06:31:14.224Z,50.97
2019-01-24T06:33:54.995Z,54.13
2019-01-24T06:36:35.725Z,48.53
2019-01-24T06:39:16.408Z,48.13
2019-01-24T06:41:57.057Z,52.13
2019-01-24T06:44:37.920Z,54.53
2019-01-24T06:47:18.743Z,52.63
2019-01-24T06:49:59.512Z,48.80
2019-01-24T06:52:40.382Z,46.00
2019-01-24T06:55:20.969Z,47.77
2019-01-24T06:58:02.005Z,48.80
2019-01-24T07:00:43.147Z,52.47
2019-01-24T07:03:11.552Z,46.50
2019-01-24T07:05:59.316Z,50.80
2019-01-24T07:08:47.129Z,48.80
2019-01-24T07:11:34.928Z,50.20
2019-01-24T07:14:22.685Z,46.03
2019-01-24T07:17:10.449Z,48.03
2019-01-24T07:19:58.223Z,48.87
2019-01-24T07:22:45.986Z,47.87
2019-01-24T07:25:33.757Z,58.03
2019-01-24T07:28:21.506Z,43.67
2019-01-24T07:31:09.460Z,48.10
2019-01-24T07:33:57.224Z,44.27
2019-01-24T07:36:45.024Z,48.07
2019-01-24T07:39:32.965Z,46.97
2019-01-24T07:42:20.853Z,48.53
2019-01-24T07:45:29.350Z,50.00
2019-01-24T07:48:17.117Z,45.67
2019-01-24T07:50:57.827Z,48.40
2019-01-24T07:53:38.319Z,50.70
2019-01-24T07:56:19.234Z,47.43
2019-01-24T07:58:59.889Z,53.83
2019-01-24T08:01:41.121Z,51.07
2019-01-24T08:04:22.109Z,53.00
2019-01-24T08:07:02.706Z,54.03
2019-01-24T08:09:43.484Z,44.37
2019-01-24T08:12:24.695Z,48.70
2019-01-24T08:15:05.576Z,48.87
2019-01-24T08:17:46.356Z,49.03
2019-01-24T08:20:27.337Z,51.90
2019-01-24T08:23:08.303Z,48.17
2019-01-24T08:25:49.267Z,50.07
2019-01-24T08:28:30.109Z,49.60
2019-01-24T08:31:11.041Z,54.57
2019-01-24T08:33:51.822Z,46.63
2019-01-24T08:36:32.745Z,50.37
2019-01-24T08:39:13.400Z,49.70
2019-01-24T08:41:54.477Z,49.93
2019-01-24T08:44:35.280Z,48.80
2019-01-24T08:47:16.095Z,58.73
2019-01-24T08:49:57.140Z,50.77
2019-01-24T08:52:37.869Z,51.10
2019-01-24T08:55:18.619Z,46.70
2019-01-24T08:57:59.172Z,46.47
2019-01-24T09:00:37.885Z,49.60
2019-01-24T09:03:25.663Z,47.13
2019-01-24T09:06:13.427Z,47.40
2019-01-24T09:09:01.203Z,48.30
2019-01-24T09:11:49.337Z,44.67
2019-01-24T09:14:37.477Z,43.77
2019-01-24T09:17:25.244Z,43.17
2019-01-24T09:20:32.413Z,43.70
2019-01-24T09:23:20.153Z,44.00
2019-01-24T09:26:08.279Z,44.80
2019-01-24T09:28:56.026Z,47.73
2019-01-24T09:31:43.862Z,44.80
2019-01-24T09:34:31.660Z,44.53
2019-01-24T09:37:19.444Z,50.50
2019-01-24T09:40:00.097Z,51.97
2019-01-24T09:42:40.828Z,48.83
2019-01-24T09:45:21.673Z,47.57
2019-01-24T09:48:02.669Z,46.27
2019-01-24T09:50:43.393Z,54.43
2019-01-24T09:53:24.040Z,48.97
2019-01-24T09:56:04.669Z,50.50
2019-01-24T09:58:45.874Z,48.90
2019-01-24T10:01:26.988Z,56.83
2019-01-24T10:04:07.701Z,50.13
2019-01-24T10:06:48.725Z,48.67
2019-01-24T10:09:29.724Z,60.20
2019-01-24T10:12:10.557Z,53.37
2019-01-24T10:14:51.651Z,50.47
2019-01-24T10:17:33.770Z,51.90
2019-01-24T10:20:14.496Z,48.47
2019-01-24T10:22:55.225Z,48.73
2019-01-24T10:25:36.228Z,52.00
2019-01-24T10:28:17.395Z,52.47
2019-01-24T10:30:58.351Z,52.70
2019-01-24T10:33:39.332Z,48.47
2019-01-24T10:36:19.988Z,54.53
2019-01-24T10:39:00.887Z,57.13
2019-01-24T10:41:41.827Z,52.63
2019-01-24T10:44:22.070Z,52.57
2019-01-24T10:47:03.221Z,49.17
2019-01-24T10:49:44.116Z,55.27
2019-01-24T10:52:24.681Z,64.70
2019-01-24T10:55:05.461Z,55.57
2019-01-24T10:57:46.456Z,49.80
2019-01-24T11:00:27.425Z,51.87
2019-01-24T11:03:08.403Z,60.60
2019-01-24T11:05:48.966Z,61.60
2019-01-24T11:08:29.775Z,53.80
2019-01-24T11:11:10.733Z,54.07
2019-01-24T11:13:51.499Z,51.77
2019-01-24T11:16:32.567Z,47.17
2019-01-24T11:19:13.160Z,54.77
2019-01-24T11:21:53.900Z,69.13
2019-01-24T11:24:34.127Z,53.77
2019-01-24T11:27:15.133Z,56.37
2019-01-24T11:29:55.385Z,63.83
2019-01-24T11:32:36.397Z,63.43
2019-01-24T11:35:17.447Z,51.40
2019-01-24T11:37:58.288Z,58.77
2019-01-24T11:40:38.998Z,52.57
2019-01-24T11:43:19.515Z,60.37
2019-01-24T11:46:00.000Z,50.77
2019-01-24T11:48:41.091Z,47.67
2019-01-24T11:51:21.519Z,52.80
2019-01-24T11:54:02.469Z,56.37
2019-01-24T11:56:43.083Z,59.60
2019-01-24T11:59:23.753Z,49.67
2019-01-24T12:02:04.967Z,54.83
2019-01-24T12:04:45.429Z,51.67
2019-01-24T12:07:29.028Z,55.97
2019-01-24T12:10:09.930Z,52.13
2019-01-24T12:12:50.254Z,61.37
2019-01-24T12:15:30.893Z,57.67
2019-01-24T12:18:11.830Z,62.17
2019-01-24T12:20:52.331Z,51.53
2019-01-24T12:23:32.960Z,53.77
2019-01-24T12:26:14.723Z,56.83
2019-01-24T12:28:55.469Z,60.43
2019-01-24T12:31:36.350Z,60.77
2019-01-24T12:34:17.085Z,49.63
2019-01-24T12:36:57.972Z,58.13
2019-01-24T12:39:38.457Z,54.00
2019-01-24T12:42:19.493Z,69.47
2019-01-24T12:45:00.350Z,51.87
2019-01-24T12:48:08.966Z,52.70
2019-01-24T12:50:56.768Z,52.83
2019-01-24T12:53:44.540Z,52.17
2019-01-24T12:56:32.308Z,46.40
2019-01-24T12:59:20.128Z,54.40
2019-01-24T13:02:00.926Z,74.33
2019-01-24T13:04:42.044Z,49.77
2019-01-24T13:07:22.627Z,59.50
2019-01-24T13:10:03.544Z,64.37
2019-01-24T13:12:44.298Z,59.73
2019-01-24T13:15:25.009Z,52.60
2019-01-24T13:18:05.914Z,45.57
2019-01-24T13:20:46.603Z,53.53
2019-01-24T13:23:27.089Z,53.13
2019-01-24T13:26:07.910Z,55.07
2019-01-24T13:28:49.442Z,55.13
2019-01-24T13:31:30.404Z,51.03
2019-01-24T13:34:11.319Z,60.07
2019-01-24T13:36:51.961Z,52.97
2019-01-24T13:39:32.875Z,45.60
2019-01-24T13:42:13.701Z,50.50
2019-01-24T13:44:54.784Z,46.83
2019-01-24T13:47:36.013Z,59.03
2019-01-24T13:50:16.899Z,53.23
2019-01-24T13:52:57.678Z,62.83
2019-01-24T13:55:39.486Z,58.17
2019-01-24T13:58:20.098Z,43.57
2019-01-24T14:01:00.807Z,47.10
2019-01-24T14:03:42.126Z,38.80
2019-01-24T14:06:23.569Z,46.17
2019-01-24T14:09:03.583Z,43.63
2019-01-24T14:11:44.509Z,43.77
2019-01-24T14:14:25.593Z,50.03
2019-01-24T14:17:06.596Z,48.73
2019-01-24T14:19:47.129Z,43.40
2019-01-24T14:22:27.898Z,52.77
2019-01-24T14:25:08.522Z,45.97
2019-01-24T14:27:49.129Z,42.20
2019-01-24T14:30:29.974Z,39.57
2019-01-24T14:33:10.774Z,44.70
2019-01-24T14:35:51.382Z,55.50
2019-01-24T14:38:32.380Z,52.33
2019-01-24T14:41:12.778Z,52.73
2019-01-24T14:43:53.546Z,44.33
2019-01-24T14:46:34.768Z,44.30
2019-01-24T14:49:15.752Z,47.10
2019-01-24T14:51:56.127Z,40.37
2019-01-24T14:54:37.314Z,43.33
2019-01-24T14:57:18.329Z,48.83
2019-01-24T14:59:58.601Z,49.97
2019-01-24T15:02:39.448Z,56.63
2019-01-24T15:05:20.268Z,43.10
2019-01-24T15:08:00.978Z,43.93
2019-01-24T15:10:41.697Z,48.67
2019-01-24T15:13:22.158Z,51.13
2019-01-24T15:16:03.084Z,47.37
2019-01-24T15:18:43.622Z,47.83
2019-01-24T15:21:24.097Z,49.90
2019-01-24T15:24:05.329Z,49.43
2019-01-24T15:26:46.362Z,47.70
2019-01-24T15:29:26.913Z,49.87
2019-01-24T15:32:07.736Z,45.77
2019-01-24T15:34:48.702Z,49.00
2019-01-24T15:37:29.205Z,55.20
2019-01-24T15:40:09.983Z,55.07
2019-01-24T15:42:51.182Z,46.00
2019-01-24T15:45:31.802Z,46.97
2019-01-24T15:48:12.046Z,56.03
2019-01-24T15:50:52.375Z,50.53
2019-01-24T15:53:35.043Z,45.10
2019-01-24T15:56:18.748Z,46.87
2019-01-24T15:58:59.550Z,49.00
2019-01-24T16:01:39.991Z,46.77
2019-01-24T16:04:08.432Z,49.80
2019-01-24T16:06:56.211Z,45.37
2019-01-24T16:09:44.241Z,48.17
2019-01-24T16:12:31.984Z,51.30
2019-01-24T16:15:40.494Z,46.60
2019-01-24T16:18:28.269Z,45.90
2019-01-24T16:21:16.192Z,50.07
2019-01-24T16:24:04.434Z,55.87
2019-01-24T16:29:46.744Z,50.73
2019-01-24T16:32:34.518Z,45.37
2019-01-24T16:35:22.297Z,44.30
2019-01-24T16:38:10.584Z,46.93
2019-01-24T16:40:59.319Z,48.67
2019-01-24T16:43:47.902Z,51.43
2019-01-24T16:46:35.713Z,41.60
2019-01-24T16:49:35.506Z,47.20
2019-01-24T16:52:13.313Z,44.80
2019-01-24T16:55:01.073Z,43.90
2019-01-24T16:57:49.684Z,45.93
2019-01-24T17:00:39.024Z,50.20
2019-01-24T17:03:19.727Z,44.13
2019-01-24T17:06:00.266Z,43.87
2019-01-24T17:08:28.705Z,45.40
2019-01-24T17:11:16.520Z,44.17
2019-01-24T17:14:04.856Z,42.43
2019-01-24T17:16:52.612Z,48.50
2019-01-24T17:19:40.395Z,47.40
2019-01-24T17:22:28.145Z,44.60
2019-01-24T17:25:15.943Z,42.07
2019-01-24T17:28:03.961Z,44.87
2019-01-24T17:30:51.749Z,54.17
2019-01-24T17:33:39.645Z,41.57
2019-01-24T17:36:27.480Z,41.27
2019-01-24T17:39:15.429Z,45.90
2019-01-24T17:42:03.464Z,47.77
2019-01-24T17:44:51.407Z,43.33
2019-01-24T17:47:39.588Z,46.87
2019-01-24T17:50:27.336Z,50.47
2019-01-24T17:53:15.115Z,41.07
2019-01-24T17:56:22.180Z,40.23
2019-01-24T17:59:09.949Z,38.97
2019-01-24T18:01:50.862Z,39.60
2019-01-24T18:04:32.187Z,42.17
2019-01-24T18:07:13.017Z,42.17
2019-01-24T18:09:53.800Z,44.37
2019-01-24T18:12:34.709Z,44.07
2019-01-24T18:15:15.776Z,49.60
2019-01-24T18:17:56.089Z,41.10
2019-01-24T18:20:36.906Z,45.10
2019-01-24T18:23:17.718Z,42.47
2019-01-24T18:25:58.877Z,42.70
2019-01-24T18:28:39.785Z,41.17
2019-01-24T18:31:20.726Z,43.80
2019-01-24T18:34:01.143Z,43.00
2019-01-24T18:36:41.574Z,41.00
2019-01-24T18:39:23.018Z,46.70
2019-01-24T18:42:04.185Z,46.73
2019-01-24T18:44:44.528Z,40.07
2019-01-24T18:47:25.289Z,44.83
2019-01-24T18:50:05.884Z,40.77
2019-01-24T18:52:47.446Z,43.37
2019-01-24T18:55:28.305Z,42.43
2019-01-24T18:58:09.005Z,40.57
2019-01-24T19:00:49.723Z,42.67
2019-01-24T19:03:30.265Z,41.70
2019-01-24T19:05:58.673Z,42.43
2019-01-24T19:08:46.479Z,44.47
2019-01-24T19:11:34.264Z,49.10
2019-01-24T19:14:22.441Z,43.50
2019-01-24T19:17:10.208Z,38.33
2019-01-24T19:19:57.967Z,40.20
2019-01-24T19:22:45.825Z,43.27
2019-01-24T19:25:54.308Z,40.77
2019-01-24T19:28:42.048Z,40.17
2019-01-24T19:31:29.872Z,44.13
2019-01-24T19:34:17.633Z,43.93
2019-01-24T19:37:05.504Z,43.83
2019-01-24T19:39:53.289Z,42.47
2019-01-24T19:42:41.050Z,44.70
2019-01-24T19:45:28.949Z,47.13
2019-01-24T19:48:16.724Z,39.17
2019-01-24T19:51:04.695Z,42.03
2019-01-24T19:53:54.338Z,39.67
2019-01-24T19:56:56.451Z,39.57
2019-01-24T19:59:32.049Z,49.40
2019-01-24T20:02:13.128Z,41.17
2019-01-24T20:04:53.883Z,40.40
2019-01-24T20:07:35.385Z,40.90
2019-01-24T20:10:16.264Z,43.23
2019-01-24T20:12:57.112Z,46.53
2019-01-24T20:15:38.229Z,41.03
2019-01-24T20:18:19.125Z,39.13
2019-01-24T20:20:59.910Z,41.67
2019-01-24T20:23:40.418Z,43.53
2019-01-24T20:26:21.140Z,42.70
2019-01-24T20:29:02.047Z,48.00
2019-01-24T20:31:43.177Z,50.63
2019-01-24T20:34:23.816Z,45.30
2019-01-24T20:37:04.177Z,40.17
2019-01-24T20:39:45.138Z,40.70
2019-01-24T20:42:26.019Z,39.00
2019-01-24T20:45:06.865Z,40.33
2019-01-24T20:47:49.158Z,44.60
2019-01-24T20:50:30.044Z,43.90
2019-01-24T20:53:10.670Z,43.37
2019-01-24T20:55:51.421Z,40.47
2019-01-24T20:58:32.044Z,44.40
2019-01-24T21:01:12.568Z,39.27
2019-01-24T21:03:55.437Z,39.07
2019-01-24T21:06:36.093Z,52.70
2019-01-24T21:09:16.862Z,37.97
2019-01-24T21:11:57.917Z,47.73
2019-01-24T21:14:38.537Z,42.60
2019-01-24T21:17:19.552Z,36.87
2019-01-24T21:20:00.757Z,39.60
2019-01-24T21:22:41.316Z,38.20
2019-01-24T21:25:21.986Z,38.20
2019-01-24T21:28:02.986Z,46.40
2019-01-24T21:30:43.924Z,43.17
2019-01-24T21:33:24.912Z,42.87
2019-01-24T21:36:05.657Z,44.97
2019-01-24T21:38:46.756Z,39.23
2019-01-24T21:41:27.630Z,39.83
2019-01-24T21:44:08.563Z,37.30
2019-01-24T21:46:49.029Z,37.20
2019-01-24T21:49:29.724Z,39.90
2019-01-24T21:52:10.935Z,47.97
2019-01-24T21:54:51.339Z,40.20
2019-01-24T21:57:32.048Z,43.40
2019-01-24T22:00:13.840Z,41.63
2019-01-24T22:02:54.888Z,40.67
2019-01-24T22:05:36.143Z,44.07
2019-01-24T22:08:16.776Z,41.83
2019-01-24T22:10:57.816Z,39.30
2019-01-24T22:13:39.052Z,43.50
2019-01-24T22:16:19.616Z,45.43
2019-01-24T22:19:00.184Z,45.90
2019-01-24T22:21:40.937Z,46.93
2019-01-24T22:24:23.710Z,43.33
2019-01-24T22:26:58.848Z,36.73
2019-01-24T22:29:46.653Z,40.23
2019-01-24T22:32:34.418Z,37.90
2019-01-24T22:35:22.438Z,41.93
2019-01-24T22:38:10.292Z,43.10
2019-01-24T22:41:00.392Z,43.83
2019-01-24T22:43:48.231Z,36.83
2019-01-24T22:46:36.051Z,41.47
2019-01-24T22:49:23.808Z,42.50
2019-01-24T22:52:11.836Z,44.57
2019-01-24T22:54:59.581Z,39.80
2019-01-24T22:57:47.349Z,44.10
2019-01-24T23:00:55.239Z,39.67
2019-01-24T23:04:03.700Z,42.70
2019-01-24T23:07:03.694Z,44.90
2019-01-24T23:09:33.456Z,42.13
2019-01-24T23:12:14.676Z,44.60
2019-01-24T23:14:58.571Z,36.97
2019-01-24T23:17:39.666Z,40.23
2019-01-24T23:20:20.324Z,41.20
2019-01-24T23:23:01.293Z,42.77
2019-01-24T23:25:41.877Z,37.87
2019-01-24T23:28:23.052Z,39.13
2019-01-24T23:31:03.881Z,43.33
2019-01-24T23:33:44.896Z,38.07
2019-01-24T23:36:25.703Z,39.97
2019-01-24T23:39:06.560Z,40.17
2019-01-24T23:41:47.610Z,41.43
2019-01-24T23:44:28.369Z,36.17
2019-01-24T23:47:09.008Z,36.80
2019-01-24T23:49:49.668Z,35.57
2019-01-24T23:52:30.600Z,38.23
2019-01-24T23:54:59.035Z,38.27
2019-01-24T23:57:46.813Z,44.13
